createdAt,value
2018-11-10T00:02:05.058Z,242.43
2018-11-10T00:05:14.475Z,249.60
2018-11-10T00:08:23.831Z,259.70
2018-11-10T00:11:33.105Z,242.57
2018-11-10T00:14:42.248Z,231.60
2018-11-10T00:17:51.619Z,232.77
2018-11-10T00:21:00.809Z,230.90
2018-11-10T00:24:10.155Z,231.00
2018-11-10T00:27:19.534Z,235.03
2018-11-10T00:30:28.784Z,226.87
2018-11-10T00:33:38.208Z,226.40
2018-11-10T00:36:47.508Z,225.07
2018-11-10T00:39:57.073Z,230.23
2018-11-10T00:43:06.386Z,221.20
2018-11-10T00:46:15.667Z,218.27
2018-11-10T00:49:24.880Z,218.50
2018-11-10T00:52:34.083Z,221.00
2018-11-10T00:55:43.236Z,230.30
2018-11-10T00:58:52.433Z,224.13
2018-11-10T01:02:01.797Z,213.20
2018-11-10T01:05:11.035Z,231.80
2018-11-10T01:08:20.732Z,236.73
2018-11-10T01:11:30.012Z,253.73
2018-11-10T01:14:39.218Z,261.20
2018-11-10T01:18:51.990Z,245.40
2018-11-10T01:22:01.357Z,259.97
2018-11-10T01:25:11.457Z,238.67
2018-11-10T01:28:20.694Z,264.87
2018-11-10T01:31:29.994Z,268.67
2018-11-10T01:34:39.262Z,231.43
2018-11-10T01:37:48.462Z,246.17
2018-11-10T01:40:57.817Z,258.67
2018-11-10T01:44:07.295Z,267.47
2018-11-10T01:47:16.518Z,257.40
2018-11-10T01:50:25.852Z,274.00
2018-11-10T01:53:35.053Z,258.57
2018-11-10T01:56:44.491Z,265.83
2018-11-10T01:59:53.793Z,265.30
2018-11-10T02:03:03.081Z,254.93
2018-11-10T02:06:12.521Z,217.63
2018-11-10T02:09:21.841Z,259.50
2018-11-10T02:12:31.048Z,257.37
2018-11-10T02:15:40.222Z,271.63
2018-11-10T02:18:49.472Z,264.37
2018-11-10T02:21:58.524Z,262.47
2018-11-10T02:25:08.859Z,264.07
2018-11-10T02:28:18.069Z,261.67
2018-11-10T02:31:27.271Z,267.10
2018-11-10T02:34:36.547Z,280.10
2018-11-10T02:37:45.852Z,275.47
2018-11-10T02:40:55.133Z,258.07
2018-11-10T02:44:04.353Z,269.60
2018-11-10T02:47:13.641Z,265.90
2018-11-10T02:50:22.893Z,260.57
2018-11-10T02:53:32.109Z,295.53
2018-11-10T02:56:41.486Z,322.60
2018-11-10T02:59:50.842Z,339.70
2018-11-10T03:03:00.095Z,402.00
2018-11-10T03:06:09.666Z,423.73
2018-11-10T03:09:18.995Z,715.57
2018-11-10T03:12:28.371Z,709.00
2018-11-10T03:15:37.733Z,704.33
2018-11-10T03:18:47.049Z,539.63
2018-11-10T03:21:56.439Z,905.40
2018-11-10T03:25:05.608Z,771.63
2018-11-10T03:28:21.573Z,1025.13
2018-11-10T03:31:30.722Z,1149.30
2018-11-10T03:34:40.122Z,632.23
2018-11-10T03:37:49.522Z,783.97
2018-11-10T03:40:58.754Z,830.33
2018-11-10T03:44:08.205Z,673.63
2018-11-10T03:47:17.391Z,358.83
2018-11-10T03:50:26.539Z,449.57
2018-11-10T03:53:35.919Z,379.50
2018-11-10T03:56:45.105Z,321.80
2018-11-10T03:59:54.451Z,371.07
2018-11-10T04:03:03.888Z,355.03
2018-11-10T04:06:13.008Z,387.20
2018-11-10T04:09:22.339Z,385.50
2018-11-10T04:12:31.701Z,512.73
2018-11-10T04:15:41.091Z,656.97
2018-11-10T04:18:50.266Z,583.07
2018-11-10T04:21:59.558Z,420.50
2018-11-10T04:25:10.166Z,320.97
2018-11-10T04:28:19.509Z,429.63
2018-11-10T04:31:28.755Z,436.73
2018-11-10T04:34:38.190Z,453.37
2018-11-10T04:37:47.657Z,427.53
2018-11-10T04:40:56.996Z,489.73
2018-11-10T04:44:06.285Z,482.30
2018-11-10T04:47:15.427Z,445.07
2018-11-10T04:50:24.637Z,428.17
2018-11-10T04:53:33.761Z,429.77
2018-11-10T04:56:43.130Z,425.73
2018-11-10T04:59:52.342Z,376.33
2018-11-10T05:03:01.576Z,379.90
2018-11-10T05:06:10.968Z,277.60
2018-11-10T05:09:20.228Z,309.20
2018-11-10T05:12:29.536Z,328.27
2018-11-10T05:15:39.027Z,325.20
2018-11-10T05:18:48.108Z,290.07
2018-11-10T05:21:57.349Z,268.20
2018-11-10T05:25:07.305Z,286.63
2018-11-10T05:28:16.528Z,288.63
2018-11-10T05:31:25.701Z,247.03
2018-11-10T05:34:35.067Z,258.97
2018-11-10T05:37:44.280Z,242.13
2018-11-10T05:40:53.574Z,259.27
2018-11-10T05:44:02.735Z,239.13
2018-11-10T05:47:11.871Z,238.70
2018-11-10T05:50:21.176Z,219.57
2018-11-10T05:53:30.380Z,241.57
2018-11-10T05:56:39.451Z,204.70
2018-11-10T05:59:48.656Z,230.37
2018-11-10T06:02:58.039Z,234.53
2018-11-10T06:06:07.595Z,218.43
2018-11-10T06:09:17.043Z,239.03
2018-11-10T06:12:26.189Z,208.13
2018-11-10T06:15:35.264Z,216.03
2018-11-10T06:18:44.565Z,207.00
2018-11-10T06:21:53.796Z,193.37
2018-11-10T06:25:02.993Z,199.70
2018-11-10T06:28:12.186Z,204.00
2018-11-10T06:31:21.324Z,192.00
2018-11-10T06:34:30.637Z,175.73
2018-11-10T06:37:40.428Z,186.93
2018-11-10T06:40:49.869Z,168.87
2018-11-10T06:43:59.085Z,180.40
2018-11-10T06:47:08.540Z,188.63
2018-11-10T06:50:17.719Z,192.20
2018-11-10T06:53:27.102Z,176.73
2018-11-10T06:56:36.604Z,186.27
2018-11-10T06:59:45.821Z,177.27
2018-11-10T07:02:55.265Z,167.07
2018-11-10T07:06:04.981Z,185.03
2018-11-10T07:09:14.370Z,168.10
2018-11-10T07:12:23.763Z,167.77
2018-11-10T07:15:33.143Z,163.83
2018-11-10T07:18:42.452Z,167.13
2018-11-10T07:21:51.875Z,157.47
2018-11-10T07:25:01.578Z,161.03
2018-11-10T07:28:10.583Z,167.93
2018-11-10T07:31:19.853Z,156.77
2018-11-10T07:34:29.071Z,159.20
2018-11-10T07:37:38.343Z,152.03
2018-11-10T07:40:47.497Z,163.73
2018-11-10T07:43:56.796Z,144.77
2018-11-10T07:47:06.273Z,143.67
2018-11-10T07:50:15.609Z,153.73
2018-11-10T07:53:24.916Z,132.93
2018-11-10T07:56:34.080Z,128.50
2018-11-10T07:59:43.463Z,137.47
2018-11-10T08:02:52.587Z,128.87
2018-11-10T08:06:01.865Z,130.43
2018-11-10T08:09:11.311Z,127.90
2018-11-10T08:12:20.571Z,119.87
2018-11-10T08:15:29.905Z,119.77
2018-11-10T08:18:40.038Z,127.80
2018-11-10T08:21:49.496Z,109.77
2018-11-10T08:24:58.931Z,115.73
2018-11-10T08:28:08.286Z,115.77
2018-11-10T08:31:17.483Z,112.83
2018-11-10T08:34:26.913Z,110.53
2018-11-10T08:37:36.366Z,110.30
2018-11-10T08:40:45.601Z,96.17
2018-11-10T08:43:54.795Z,95.30
2018-11-10T08:47:04.370Z,93.70
2018-11-10T08:50:14.854Z,96.87
2018-11-10T08:53:24.064Z,95.37
2018-11-10T08:56:33.241Z,101.17
2018-11-10T08:59:42.583Z,85.57
2018-11-10T09:02:51.885Z,88.43
2018-11-10T09:06:01.090Z,89.17
2018-11-10T09:09:10.880Z,83.23
2018-11-10T09:12:20.225Z,79.33
2018-11-10T09:15:29.454Z,83.93
2018-11-10T09:18:38.792Z,84.43
2018-11-10T09:21:48.111Z,84.97
2018-11-10T09:24:57.352Z,80.00
2018-11-10T09:28:06.660Z,86.77
2018-11-10T09:31:15.809Z,82.13
2018-11-10T09:34:25.238Z,80.47
2018-11-10T09:37:34.445Z,82.20
2018-11-10T09:40:43.618Z,76.93
2018-11-10T09:43:52.885Z,74.00
2018-11-10T09:47:02.169Z,71.07
2018-11-10T09:50:13.838Z,78.20
2018-11-10T09:53:23.039Z,71.53
2018-11-10T09:56:32.304Z,77.97
2018-11-10T09:59:41.572Z,72.10
2018-11-10T10:02:51.262Z,67.47
2018-11-10T10:06:00.152Z,69.87
2018-11-10T10:09:10.573Z,69.57
2018-11-10T10:12:19.787Z,61.07
2018-11-10T10:15:29.071Z,63.53
2018-11-10T10:18:38.197Z,65.70
2018-11-10T10:21:47.461Z,69.30
2018-11-10T10:24:56.647Z,63.63
2018-11-10T10:28:06.120Z,65.90
2018-11-10T10:31:15.307Z,63.77
2018-11-10T10:34:24.679Z,65.77
2018-11-10T10:37:33.985Z,61.60
2018-11-10T10:40:43.226Z,66.47
2018-11-10T10:43:52.382Z,66.40
2018-11-10T10:47:01.638Z,62.67
2018-11-10T10:50:12.577Z,71.17
2018-11-10T10:53:21.921Z,61.93
2018-11-10T10:56:31.236Z,68.03
2018-11-10T10:59:40.446Z,63.40
2018-11-10T11:02:55.893Z,61.00
2018-11-10T11:06:05.067Z,59.80
2018-11-10T11:09:14.420Z,63.83
2018-11-10T11:12:23.623Z,58.47
2018-11-10T11:15:33.050Z,55.47
2018-11-10T11:18:42.255Z,51.93
2018-11-10T11:21:51.498Z,55.33
2018-11-10T11:25:00.666Z,55.77
2018-11-10T11:28:09.819Z,50.60
2018-11-10T11:31:19.269Z,52.73
2018-11-10T11:34:28.528Z,47.80
2018-11-10T11:37:37.965Z,51.93
2018-11-10T11:40:47.310Z,50.67
2018-11-10T11:43:56.539Z,55.93
2018-11-10T11:47:05.899Z,55.83
2018-11-10T11:50:16.130Z,51.43
2018-11-10T11:53:25.365Z,53.50
2018-11-10T11:56:35.069Z,51.57
2018-11-10T11:59:44.247Z,52.97
2018-11-10T12:02:53.604Z,52.97
2018-11-10T12:06:02.823Z,49.33
2018-11-10T12:09:12.314Z,49.90
2018-11-10T12:12:21.634Z,47.63
2018-11-10T12:15:31.030Z,50.43
2018-11-10T12:18:40.267Z,49.30
2018-11-10T12:21:49.537Z,47.53
2018-11-10T12:24:58.620Z,50.20
2018-11-10T12:28:07.882Z,46.47
2018-11-10T12:31:17.247Z,47.27
2018-11-10T12:34:26.577Z,47.03
2018-11-10T12:37:35.782Z,43.90
2018-11-10T12:40:44.983Z,48.03
2018-11-10T12:43:54.439Z,47.90
2018-11-10T12:47:03.833Z,46.33
2018-11-10T12:50:14.130Z,46.50
2018-11-10T12:53:23.283Z,43.87
2018-11-10T12:56:32.570Z,48.40
2018-11-10T12:59:42.034Z,43.87
2018-11-10T13:02:51.270Z,41.90
2018-11-10T13:06:00.509Z,46.43
2018-11-10T13:09:11.059Z,42.60
2018-11-10T13:12:20.316Z,43.00
2018-11-10T13:15:29.646Z,42.97
2018-11-10T13:18:38.934Z,44.70
2018-11-10T13:25:05.224Z,48.03
2018-11-10T13:28:14.519Z,45.97
2018-11-10T13:31:24.172Z,44.03
2018-11-10T13:34:33.334Z,43.53
2018-11-10T13:37:42.698Z,44.57
2018-11-10T13:40:52.008Z,42.47
2018-11-10T13:44:01.449Z,42.53
2018-11-10T13:47:10.793Z,42.63
2018-11-10T13:50:20.307Z,47.00
2018-11-10T13:53:29.605Z,39.00
2018-11-10T13:56:39.023Z,41.23
2018-11-10T13:59:48.298Z,45.47
2018-11-10T14:02:57.524Z,41.30
2018-11-10T14:06:06.784Z,40.80
2018-11-10T14:09:15.913Z,40.67
2018-11-10T14:12:25.114Z,42.63
2018-11-10T14:15:34.201Z,42.70
2018-11-10T14:18:43.479Z,42.17
2018-11-10T14:21:52.953Z,43.77
2018-11-10T14:25:02.113Z,41.30
2018-11-10T14:28:11.599Z,40.70
2018-11-10T14:31:20.967Z,42.00
2018-11-10T14:34:30.380Z,43.10
2018-11-10T14:37:43.161Z,42.40
2018-11-10T14:40:52.670Z,43.73
2018-11-10T14:44:02.064Z,43.67
2018-11-10T14:47:11.257Z,42.70
2018-11-10T14:50:20.617Z,42.70
2018-11-10T14:53:29.985Z,41.00
2018-11-10T14:56:39.146Z,43.40
2018-11-10T14:59:48.437Z,44.03
2018-11-10T15:02:57.654Z,45.60
2018-11-10T15:06:07.027Z,42.63
2018-11-10T15:09:16.562Z,60.80
2018-11-10T15:12:28.893Z,50.83
2018-11-10T15:15:38.084Z,52.20
2018-11-10T15:18:47.418Z,53.53
2018-11-10T15:21:56.684Z,46.13
2018-11-10T15:25:07.615Z,47.77
2018-11-10T15:28:17.507Z,47.73
2018-11-10T15:31:26.691Z,58.13
2018-11-10T15:34:35.992Z,56.30
2018-11-10T15:37:46.593Z,57.07
2018-11-10T15:40:55.883Z,55.13
2018-11-10T15:44:05.256Z,58.10
2018-11-10T15:47:14.594Z,56.10
2018-11-10T15:50:23.759Z,58.53
2018-11-10T15:53:33.292Z,52.00
2018-11-10T15:56:42.673Z,55.63
2018-11-10T15:59:51.909Z,55.33
2018-11-10T16:03:01.179Z,51.97
2018-11-10T16:06:10.428Z,50.17
2018-11-10T16:09:19.872Z,56.33
2018-11-10T16:12:29.457Z,51.57
2018-11-10T16:15:38.685Z,55.37
2018-11-10T16:18:47.971Z,58.80
2018-11-10T16:21:57.161Z,55.37
2018-11-10T16:25:07.561Z,58.33
2018-11-10T16:28:16.884Z,57.23
2018-11-10T16:31:26.467Z,52.67
2018-11-10T16:34:35.834Z,53.50
2018-11-10T16:37:45.183Z,55.03
2018-11-10T16:40:54.449Z,55.53
2018-11-10T16:44:03.621Z,58.00
2018-11-10T16:47:12.786Z,57.73
2018-11-10T16:50:22.088Z,64.97
2018-11-10T16:53:31.247Z,58.93
2018-11-10T16:56:40.514Z,56.40
2018-11-10T16:59:49.955Z,59.63
2018-11-10T17:02:59.170Z,61.10
2018-11-10T17:06:08.376Z,60.40
2018-11-10T17:09:17.478Z,68.00
2018-11-10T17:12:26.629Z,63.63
2018-11-10T17:15:35.961Z,66.00
2018-11-10T17:18:45.363Z,68.43
2018-11-10T17:21:54.842Z,65.37
2018-11-10T17:25:04.298Z,61.40
2018-11-10T17:28:13.586Z,65.93
2018-11-10T17:31:22.650Z,60.77
2018-11-10T17:34:31.963Z,67.07
2018-11-10T17:37:41.240Z,67.53
2018-11-10T17:40:50.391Z,64.80
2018-11-10T17:43:59.666Z,69.67
2018-11-10T17:47:08.910Z,76.70
2018-11-10T17:50:18.625Z,73.20
2018-11-10T17:53:27.875Z,75.13
2018-11-10T17:56:37.138Z,73.67
2018-11-10T17:59:46.422Z,73.47
2018-11-10T18:02:55.816Z,71.37
2018-11-10T18:06:05.079Z,79.33
2018-11-10T18:09:14.280Z,73.10
2018-11-10T18:12:23.516Z,75.87
2018-11-10T18:15:32.852Z,70.53
2018-11-10T18:18:42.082Z,71.63
2018-11-10T18:21:51.399Z,73.40
2018-11-10T18:25:00.868Z,73.73
2018-11-10T18:28:10.266Z,71.37
2018-11-10T18:31:19.531Z,73.90
2018-11-10T18:34:28.659Z,71.60
2018-11-10T18:37:37.765Z,69.87
2018-11-10T18:40:46.905Z,70.27
2018-11-10T18:43:56.257Z,74.77
2018-11-10T18:47:05.693Z,71.43
2018-11-10T18:50:15.811Z,83.87
2018-11-10T18:53:25.021Z,77.77
2018-11-10T18:56:34.286Z,77.97
2018-11-10T18:59:43.427Z,73.30
2018-11-10T19:02:52.660Z,87.90
2018-11-10T19:06:02.153Z,78.67
2018-11-10T19:09:12.557Z,71.70
2018-11-10T19:12:21.691Z,77.10
2018-11-10T19:15:31.142Z,76.73
2018-11-10T19:18:40.270Z,75.57
2018-11-10T19:21:49.554Z,72.53
2018-11-10T19:24:58.935Z,75.03
2018-11-10T19:28:08.360Z,80.17
2018-11-10T19:31:17.603Z,76.07
2018-11-10T19:34:26.965Z,67.63
2018-11-10T19:37:36.263Z,69.93
2018-11-10T19:40:45.612Z,75.20
2018-11-10T19:43:54.835Z,70.80
2018-11-10T19:47:04.174Z,70.20
2018-11-10T19:50:14.128Z,75.00
2018-11-10T19:53:23.374Z,73.27
2018-11-10T19:56:32.782Z,78.07
2018-11-10T19:59:41.921Z,73.30
2018-11-10T20:02:51.247Z,72.57
2018-11-10T20:06:00.621Z,73.57
2018-11-10T20:09:10.544Z,75.50
2018-11-10T20:12:19.667Z,84.73
2018-11-10T20:15:28.798Z,85.13
2018-11-10T20:18:38.804Z,83.77
2018-11-10T20:21:48.334Z,91.30
2018-11-10T20:24:57.779Z,81.93
2018-11-10T20:28:07.013Z,88.27
2018-11-10T20:31:16.280Z,84.40
2018-11-10T20:34:25.353Z,85.43
2018-11-10T20:37:34.673Z,90.63
2018-11-10T20:40:43.923Z,95.40
2018-11-10T20:43:53.442Z,97.90
2018-11-10T20:47:02.722Z,97.20
2018-11-10T20:50:12.661Z,104.30
2018-11-10T20:53:22.131Z,104.67
2018-11-10T20:56:31.576Z,96.97
2018-11-10T20:59:40.910Z,102.33
2018-11-10T21:02:50.124Z,101.93
2018-11-10T21:05:59.372Z,106.17
2018-11-10T21:09:10.051Z,109.73
2018-11-10T21:12:19.396Z,113.23
2018-11-10T21:15:28.685Z,113.23
2018-11-10T21:18:38.112Z,112.37
2018-11-10T21:21:47.369Z,110.27
2018-11-10T21:24:56.703Z,114.63
2018-11-10T21:28:05.965Z,118.17
2018-11-10T21:31:15.168Z,116.83
2018-11-10T21:35:27.844Z,113.47
2018-11-10T21:38:37.195Z,117.17
2018-11-10T21:41:46.285Z,115.67
2018-11-10T21:44:55.513Z,113.33
2018-11-10T21:48:05.174Z,122.30
2018-11-10T21:51:14.476Z,114.30
2018-11-10T21:54:23.947Z,112.53
2018-11-10T21:57:33.300Z,113.97
2018-11-10T22:00:42.522Z,120.17
2018-11-10T22:03:51.968Z,120.63
2018-11-10T22:07:01.403Z,115.40
2018-11-10T22:10:12.793Z,122.07
2018-11-10T22:13:21.972Z,118.57
2018-11-10T22:16:31.138Z,108.90
2018-11-10T22:19:40.342Z,112.57
2018-11-10T22:22:49.722Z,110.80
2018-11-10T22:25:59.188Z,109.10
2018-11-10T22:29:08.628Z,107.07
2018-11-10T22:32:18.103Z,107.33
2018-11-10T22:35:27.246Z,104.63
2018-11-10T22:38:36.460Z,117.87
2018-11-10T22:41:45.812Z,105.03
2018-11-10T22:44:55.068Z,110.73
2018-11-10T22:48:04.878Z,113.93
2018-11-10T22:51:14.023Z,113.90
2018-11-10T22:54:23.186Z,116.87
2018-11-10T22:57:32.760Z,121.33
2018-11-10T23:00:47.513Z,122.53
2018-11-10T23:03:56.839Z,108.63
2018-11-10T23:07:06.402Z,122.73
2018-11-10T23:10:16.125Z,127.93
2018-11-10T23:13:25.393Z,127.03
2018-11-10T23:16:34.683Z,131.77
2018-11-10T23:19:44.009Z,128.20
2018-11-10T23:22:53.340Z,131.40
2018-11-10T23:26:02.506Z,126.73
2018-11-10T23:29:11.881Z,136.10
2018-11-10T23:32:21.241Z,134.33
2018-11-10T23:35:30.406Z,131.47
2018-11-10T23:38:39.701Z,139.07
2018-11-10T23:41:49.012Z,138.83
2018-11-10T23:44:58.246Z,139.57
2018-11-10T23:48:07.502Z,143.57
2018-11-10T23:51:16.788Z,146.33
2018-11-10T23:54:25.985Z,141.23
2018-11-10T23:57:35.362Z,146.43
